Terminal Aerodrome Forecast
Issued by NWS

Home | Current Version | Previous Version | Text Only | Print | Product List | Glossary On
Versions: 1 2 3 4 5 6 7 8 9 10 11 12 13 14 15 16 17 18 19 20
000
FTUS41 KPBZ 061804 AAA
TAFLBE
TAF AMD
KLBE 061804Z 0618/0718 29010KT P6SM BKN050
     FM070100 VRB04KT P6SM SCT040
     FM070800 VRB03KT 2SM BR SKC
     FM071300 20003KT P6SM SCT250=

USA.gov is the U.S. government's official web portal to all federal, state and local government web resources and services.